Moyer Aviation Incorporated

Pocono Mountains Airport

188 Airport Rd. Tobyhanna, PA 18466 

P: 570-839-7161
800-321-5890
F: 570-839-7162

Weather

Weather

Pocono Weather

KMPO 230453Z AUTO 10008KT 1/4SM FG VV001 02/02 A2994 RMK AO2 SLP152 T00220022 400940022

Allentown Weather

KABE 230451Z AUTO 08008KT 5SM BR BKN090 OVC110 05/03 A2998 RMK AO2 SLP155 T00500028 401170022

Wilkes-Barre Weather

KAVP 230454Z 05005KT 8SM BKN075 08/04 A2991 RMK AO2 SLP130 T00830044 401000017


* required field

Contact Us